Time;durP1;ratioP1;P1;durP2;ratioP2;P2;SDS_P1;SDS_P2;PMS_P1;PMS_P2;Temp;Humidity;BMP_temperature;BMP_pressure;BME280_temperature;BME280_humidity;BME280_pressure;Samples;Min_cycle;Max_cycle;Signal;HPM_P1;HPM_P2
2021/08/07 00:01:00;;;;;;;19.17;3.80;;;;;;;;;;5110994;28;20047;-65
2021/08/07 00:03:27;;;;;;;19.63;4.43;;;;;;;;;;5110600;28;20119;-65
2021/08/07 00:05:53;;;;;;;16.20;3.83;;;;;;;;;;5096835;28;20039;-65
2021/08/07 00:08:19;;;;;;;28.33;4.18;;;;;;;;;;5112357;28;20119;-65
2021/08/07 00:10:45;;;;;;;14.88;3.20;;;;;;;;;;5111334;28;20019;-66
2021/08/07 00:13:12;;;;;;;15.82;4.28;;;;;;;;;;5110824;28;20012;-65
2021/08/07 00:15:38;;;;;;;16.55;3.78;;;;;;;;;;5111471;28;20034;-66
2021/08/07 00:18:04;;;;;;;13.27;3.70;;;;;;;;;;5104662;28;20050;-65
2021/08/07 00:20:31;;;;;;;12.18;3.13;;;;;;;;;;5111963;28;20020;-66
2021/08/07 00:22:57;;;;;;;17.83;3.53;;;;;;;;;;5113621;27;20020;-66
2021/08/07 00:25:23;;;;;;;18.00;3.63;;;;;;;;;;5102191;27;20024;-66
2021/08/07 00:27:49;;;;;;;16.27;3.42;;;;;;;;;;5111589;28;20020;-65
2021/08/07 00:30:15;;;;;;;26.52;3.50;;;;;;;;;;5112890;28;20031;-65
2021/08/07 00:32:41;;;;;;;13.48;3.63;;;;;;;;;;5112112;28;20055;-66
2021/08/07 00:35:07;;;;;;;19.23;3.42;;;;;;;;;;5112303;28;20026;-65
2021/08/07 00:37:34;;;;;;;20.27;3.95;;;;;;;;;;5112425;28;20027;-66
2021/08/07 00:40:00;;;;;;;16.42;4.03;;;;;;;;;;5112603;28;20024;-66
2021/08/07 00:42:26;;;;;;;13.02;3.35;;;;;;;;;;5112346;28;20028;-65
2021/08/07 00:44:52;;;;;;;14.05;4.15;;;;;;;;;;5111563;28;20058;-65
2021/08/07 00:47:19;;;;;;;18.13;3.78;;;;;;;;;;5111339;28;20516;-65
2021/08/07 00:49:46;;;;;;;15.35;4.15;;;;;;;;;;5111113;28;20027;-66
2021/08/07 00:52:12;;;;;;;22.38;3.97;;;;;;;;;;5111554;28;20502;-66
2021/08/07 00:54:41;;;;;;;14.30;3.58;;;;;;;;;;5111322;28;20031;-65
2021/08/07 00:57:07;;;;;;;17.95;3.38;;;;;;;;;;5110752;28;20076;-65
2021/08/07 00:59:33;;;;;;;14.80;3.72;;;;;;;;;;5111306;28;20028;-66
2021/08/07 01:02:01;;;;;;;11.38;2.83;;;;;;;;;;5111602;28;20517;-65
2021/08/07 01:04:28;;;;;;;19.73;2.72;;;;;;;;;;5103652;28;20058;-66
2021/08/07 01:07:03;;;;;;;14.95;3.00;;;;;;;;;;5110893;28;20050;-66
2021/08/07 01:09:41;;;;;;;16.15;2.92;;;;;;;;;;5099298;28;20051;-66
2021/08/07 01:12:13;;;;;;;13.18;2.95;;;;;;;;;;5109396;28;20024;-66
2021/08/07 01:14:42;;;;;;;19.33;2.80;;;;;;;;;;5111868;28;20039;-66
2021/08/07 01:17:12;;;;;;;17.85;3.15;;;;;;;;;;5110926;28;20191;-65
2021/08/07 01:19:51;;;;;;;15.75;2.67;;;;;;;;;;5111528;28;20031;-65
2021/08/07 01:22:18;;;;;;;17.08;2.92;;;;;;;;;;5110063;28;20028;-66
2021/08/07 01:24:51;;;;;;;16.45;2.35;;;;;;;;;;5106805;28;20027;-65
2021/08/07 01:27:23;;;;;;;16.63;2.50;;;;;;;;;;5104594;28;20119;-66
2021/08/07 01:29:50;;;;;;;15.57;3.28;;;;;;;;;;5111808;28;20023;-65
2021/08/07 01:32:16;;;;;;;20.02;2.78;;;;;;;;;;5110256;28;20024;-65
2021/08/07 01:34:43;;;;;;;8.70;2.42;;;;;;;;;;5108206;28;20550;-66
2021/08/07 01:37:09;;;;;;;12.77;2.72;;;;;;;;;;5110536;28;20043;-66
2021/08/07 01:39:35;;;;;;;17.42;3.10;;;;;;;;;;5111481;28;20073;-66
2021/08/07 01:42:01;;;;;;;13.60;2.50;;;;;;;;;;5109778;28;20084;-66
2021/08/07 01:44:27;;;;;;;17.05;2.50;;;;;;;;;;5111061;28;20035;-65
2021/08/07 01:47:07;;;;;;;16.85;3.58;;;;;;;;;;5108314;28;20032;-66
2021/08/07 01:49:40;;;;;;;21.00;3.13;;;;;;;;;;5107815;28;20026;-66
2021/08/07 01:52:09;;;;;;;14.90;2.28;;;;;;;;;;5107326;28;20024;-66
2021/08/07 01:54:41;;;;;;;16.50;3.33;;;;;;;;;;5111448;28;20023;-65
2021/08/07 01:57:09;;;;;;;17.15;2.97;;;;;;;;;;5108176;28;20502;-66
2021/08/07 01:59:35;;;;;;;18.63;2.90;;;;;;;;;;5109848;28;20069;-66
2021/08/07 02:02:01;;;;;;;16.08;3.38;;;;;;;;;;5109424;28;20032;-66
2021/08/07 02:04:28;;;;;;;19.23;2.70;;;;;;;;;;5100030;28;20032;-65
2021/08/07 02:06:57;;;;;;;19.42;2.47;;;;;;;;;;5095155;28;20052;-66
2021/08/07 02:09:23;;;;;;;13.93;3.67;;;;;;;;;;5110961;28;20020;-65
2021/08/07 02:11:50;;;;;;;17.88;2.83;;;;;;;;;;5110728;28;20028;-66
2021/08/07 02:14:17;;;;;;;22.15;4.32;;;;;;;;;;5110492;28;20474;-66
2021/08/07 02:16:44;;;;;;;17.80;3.70;;;;;;;;;;5107320;28;20038;-66
2021/08/07 02:19:11;;;;;;;20.10;3.35;;;;;;;;;;5109652;28;20105;-66
2021/08/07 02:21:37;;;;;;;21.85;2.92;;;;;;;;;;5111042;28;20035;-66
2021/08/07 02:24:04;;;;;;;17.70;2.70;;;;;;;;;;5108986;28;20066;-66
2021/08/07 02:26:30;;;;;;;16.92;3.38;;;;;;;;;;5093453;28;20028;-66
2021/08/07 02:28:56;;;;;;;16.08;2.80;;;;;;;;;;5103227;28;20483;-66
2021/08/07 02:31:22;;;;;;;22.25;3.47;;;;;;;;;;5111050;28;20032;-66
2021/08/07 02:33:49;;;;;;;21.17;3.10;;;;;;;;;;5102157;28;20023;-66
2021/08/07 02:36:16;;;;;;;17.25;3.15;;;;;;;;;;5109688;28;20540;-66
2021/08/07 02:38:42;;;;;;;15.82;3.25;;;;;;;;;;5111175;28;20024;-66
2021/08/07 02:41:08;;;;;;;15.07;3.60;;;;;;;;;;5110538;28;20076;-66
2021/08/07 02:43:35;;;;;;;18.38;2.97;;;;;;;;;;5110982;28;20028;-66
2021/08/07 02:46:01;;;;;;;17.63;3.20;;;;;;;;;;5112815;28;20031;-66
2021/08/07 02:48:28;;;;;;;14.65;2.60;;;;;;;;;;5114848;28;20157;-66
2021/08/07 02:50:54;;;;;;;13.60;3.45;;;;;;;;;;5099919;28;20028;-66
2021/08/07 02:53:20;;;;;;;20.60;5.50;;;;;;;;;;5114542;28;20098;-66
2021/08/07 02:55:46;;;;;;;20.15;3.65;;;;;;;;;;5113359;28;20082;-66
2021/08/07 02:58:13;;;;;;;16.70;3.28;;;;;;;;;;5113357;28;20024;-66
2021/08/07 03:00:39;;;;;;;15.75;3.80;;;;;;;;;;5113497;28;20031;-66
2021/08/07 03:03:06;;;;;;;14.10;3.28;;;;;;;;;;5114091;28;20107;-66
2021/08/07 03:05:32;;;;;;;14.45;3.15;;;;;;;;;;5112927;28;20055;-66
2021/08/07 03:07:58;;;;;;;18.67;3.40;;;;;;;;;;5114287;28;20062;-66
2021/08/07 03:10:24;;;;;;;18.60;4.15;;;;;;;;;;5113701;28;20561;-66
2021/08/07 03:12:52;;;;;;;18.05;3.55;;;;;;;;;;5113217;28;20030;-66
2021/08/07 03:15:19;;;;;;;16.63;3.53;;;;;;;;;;5112390;28;20030;-66
2021/08/07 03:17:45;;;;;;;12.30;3.88;;;;;;;;;;5114539;28;20028;-66
2021/08/07 03:20:11;;;;;;;16.38;4.63;;;;;;;;;;5113911;27;20028;-66
2021/08/07 03:22:38;;;;;;;16.20;4.10;;;;;;;;;;5116935;27;20024;-66
2021/08/07 03:25:04;;;;;;;17.65;5.20;;;;;;;;;;5106819;28;20036;-66
2021/08/07 03:27:30;;;;;;;19.50;4.10;;;;;;;;;;5117387;27;20039;-66
2021/08/07 03:29:56;;;;;;;14.82;4.05;;;;;;;;;;5116846;27;20020;-66
2021/08/07 03:32:22;;;;;;;20.15;4.35;;;;;;;;;;5114162;27;20016;-66
2021/08/07 03:34:48;;;;;;;23.65;3.83;;;;;;;;;;5109542;28;20054;-66
2021/08/07 03:37:14;;;;;;;13.95;4.13;;;;;;;;;;5124471;27;20027;-66
2021/08/07 03:39:40;;;;;;;21.58;5.03;;;;;;;;;;5116032;27;20076;-65
2021/08/07 03:42:06;;;;;;;15.75;4.07;;;;;;;;;;5115642;27;20038;-65
2021/08/07 03:44:33;;;;;;;21.25;3.92;;;;;;;;;;5116800;27;20490;-66
2021/08/07 03:46:59;;;;;;;16.65;4.95;;;;;;;;;;5112413;28;20112;-68
2021/08/07 03:49:25;;;;;;;16.63;4.25;;;;;;;;;;5113130;28;20061;-65
2021/08/07 03:51:51;;;;;;;14.65;4.13;;;;;;;;;;5112499;28;20088;-65
2021/08/07 03:54:17;;;;;;;24.95;5.60;;;;;;;;;;5108097;27;20051;-65
2021/08/07 03:56:43;;;;;;;18.15;4.93;;;;;;;;;;5111825;28;20712;-66
2021/08/07 03:59:09;;;;;;;17.63;5.05;;;;;;;;;;5113924;27;20038;-65
2021/08/07 04:01:35;;;;;;;11.95;4.75;;;;;;;;;;5116568;27;20496;-65
2021/08/07 04:04:01;;;;;;;17.77;5.28;;;;;;;;;;5118413;27;20112;-65
2021/08/07 04:06:27;;;;;;;17.58;4.88;;;;;;;;;;5112139;27;20044;-65
2021/08/07 04:08:54;;;;;;;24.25;6.18;;;;;;;;;;5112350;28;20035;-65
2021/08/07 04:11:20;;;;;;;16.30;6.05;;;;;;;;;;5110644;28;20027;-66
2021/08/07 04:13:46;;;;;;;15.27;5.07;;;;;;;;;;5106465;28;20024;-66
2021/08/07 04:16:12;;;;;;;13.60;4.68;;;;;;;;;;5116856;27;20043;-66
2021/08/07 04:18:38;;;;;;;19.05;6.55;;;;;;;;;;5111075;28;20506;-66
2021/08/07 04:21:04;;;;;;;16.48;4.50;;;;;;;;;;5119260;27;20039;-65
2021/08/07 04:23:30;;;;;;;16.13;4.53;;;;;;;;;;5115599;27;20380;-65
2021/08/07 04:25:56;;;;;;;17.10;4.75;;;;;;;;;;5098424;28;20035;-65
2021/08/07 04:28:22;;;;;;;14.18;4.43;;;;;;;;;;5110545;27;20030;-65
2021/08/07 04:30:48;;;;;;;12.95;3.95;;;;;;;;;;5113496;27;20035;-66
2021/08/07 04:33:14;;;;;;;12.95;4.20;;;;;;;;;;5116071;27;20058;-65
2021/08/07 04:35:40;;;;;;;16.45;3.70;;;;;;;;;;5110928;28;20027;-66
2021/08/07 04:38:06;;;;;;;17.67;3.72;;;;;;;;;;5129116;27;20048;-65
2021/08/07 04:40:32;;;;;;;16.65;4.13;;;;;;;;;;5115146;27;20031;-65
2021/08/07 04:42:59;;;;;;;14.35;3.70;;;;;;;;;;5116702;27;20023;-65
2021/08/07 04:45:25;;;;;;;8.68;3.25;;;;;;;;;;5115197;27;20313;-64
2021/08/07 04:47:52;;;;;;;14.13;4.90;;;;;;;;;;5112597;28;20036;-65
2021/08/07 04:50:18;;;;;;;18.40;3.78;;;;;;;;;;5113907;27;20023;-65
2021/08/07 04:52:44;;;;;;;10.80;3.20;;;;;;;;;;5102460;28;20471;-65
2021/08/07 04:55:10;;;;;;;13.57;3.67;;;;;;;;;;5111964;27;20562;-65
2021/08/07 04:57:36;;;;;;;7.43;3.88;;;;;;;;;;5111437;28;20028;-64
2021/08/07 05:00:02;;;;;;;9.43;3.10;;;;;;;;;;5117428;27;20031;-66
2021/08/07 05:02:28;;;;;;;6.75;2.80;;;;;;;;;;5115100;27;20440;-66
2021/08/07 05:04:54;;;;;;;10.70;3.15;;;;;;;;;;5106425;28;20027;-65
2021/08/07 05:07:20;;;;;;;11.27;4.43;;;;;;;;;;5111076;28;20049;-65
2021/08/07 05:09:46;;;;;;;11.02;3.35;;;;;;;;;;5111402;28;20032;-66
2021/08/07 05:12:12;;;;;;;7.30;3.45;;;;;;;;;;5117514;27;20028;-65
2021/08/07 05:14:38;;;;;;;13.35;3.38;;;;;;;;;;5110422;28;20028;-66
2021/08/07 05:17:04;;;;;;;10.77;3.00;;;;;;;;;;5110154;28;20024;-66
2021/08/07 05:19:30;;;;;;;15.80;3.85;;;;;;;;;;5106797;28;20028;-65
2021/08/07 05:21:56;;;;;;;7.45;3.30;;;;;;;;;;5109059;28;20055;-66
2021/08/07 05:24:22;;;;;;;8.70;2.70;;;;;;;;;;5110491;27;20031;-66
2021/08/07 05:26:48;;;;;;;8.40;3.20;;;;;;;;;;5108024;27;20035;-66
2021/08/07 05:29:14;;;;;;;9.38;2.55;;;;;;;;;;5123758;27;20031;-66
2021/08/07 05:31:40;;;;;;;11.38;3.38;;;;;;;;;;5109963;28;20024;-67
2021/08/07 05:34:06;;;;;;;9.68;3.05;;;;;;;;;;5109570;27;20077;-66
2021/08/07 05:36:33;;;;;;;10.88;3.05;;;;;;;;;;5110088;27;20038;-66
2021/08/07 05:38:59;;;;;;;11.07;3.30;;;;;;;;;;5113412;27;20022;-66
2021/08/07 05:41:25;;;;;;;10.20;4.47;;;;;;;;;;5111890;28;20040;-66
2021/08/07 05:43:51;;;;;;;12.50;3.53;;;;;;;;;;5123497;27;20034;-67
2021/08/07 05:46:18;;;;;;;12.23;3.45;;;;;;;;;;5107882;28;20494;-66
2021/08/07 05:48:44;;;;;;;9.50;3.05;;;;;;;;;;5110339;28;20053;-66
2021/08/07 05:51:10;;;;;;;10.70;3.67;;;;;;;;;;5109101;28;20028;-67
2021/08/07 05:53:36;;;;;;;13.65;4.13;;;;;;;;;;5109751;28;20016;-67
2021/08/07 05:56:02;;;;;;;9.43;4.28;;;;;;;;;;5108279;28;20028;-66
2021/08/07 05:58:30;;;;;;;11.27;4.30;;;;;;;;;;5109992;28;20024;-67
2021/08/07 06:00:56;;;;;;;11.32;3.75;;;;;;;;;;5110912;28;20038;-66
2021/08/07 06:03:22;;;;;;;13.07;4.03;;;;;;;;;;5115469;28;20039;-66
2021/08/07 06:05:48;;;;;;;15.15;4.78;;;;;;;;;;5109599;28;20055;-66
2021/08/07 06:08:15;;;;;;;19.27;5.05;;;;;;;;;;5099432;28;20032;-66
2021/08/07 06:10:41;;;;;;;13.43;4.03;;;;;;;;;;5107144;28;20043;-67
2021/08/07 06:13:07;;;;;;;17.20;5.68;;;;;;;;;;5109637;27;20023;-67
2021/08/07 06:15:33;;;;;;;11.25;4.43;;;;;;;;;;5108971;27;20041;-67
2021/08/07 06:18:00;;;;;;;12.75;4.63;;;;;;;;;;5108979;28;20028;-67
2021/08/07 06:20:27;;;;;;;12.50;5.47;;;;;;;;;;5113731;27;20026;-67
2021/08/07 06:22:53;;;;;;;8.73;4.50;;;;;;;;;;5117878;28;20036;-67
2021/08/07 06:25:19;;;;;;;11.20;4.93;;;;;;;;;;5103582;28;20599;-67
2021/08/07 06:27:45;;;;;;;9.70;4.40;;;;;;;;;;5108980;28;20032;-67
2021/08/07 06:30:11;;;;;;;15.63;6.15;;;;;;;;;;5110495;28;20041;-67
2021/08/07 06:32:37;;;;;;;16.20;4.97;;;;;;;;;;5116606;28;20027;-66
2021/08/07 06:35:03;;;;;;;11.02;5.50;;;;;;;;;;5110259;28;20051;-67
2021/08/07 06:37:30;;;;;;;11.60;5.50;;;;;;;;;;5120493;28;20027;-66
2021/08/07 06:39:56;;;;;;;13.90;5.80;;;;;;;;;;5122213;27;20032;-66
2021/08/07 06:42:22;;;;;;;11.77;5.28;;;;;;;;;;5110519;28;20031;-67
2021/08/07 06:44:48;;;;;;;14.65;5.25;;;;;;;;;;5108701;28;20028;-67
2021/08/07 06:47:14;;;;;;;14.40;6.18;;;;;;;;;;5109575;28;20151;-66
2021/08/07 06:49:40;;;;;;;13.25;6.63;;;;;;;;;;5123240;28;20032;-66
2021/08/07 06:52:06;;;;;;;16.55;6.60;;;;;;;;;;5125651;27;20274;-66
2021/08/07 06:54:33;;;;;;;16.52;6.35;;;;;;;;;;5109793;28;20072;-66
2021/08/07 06:56:59;;;;;;;14.38;5.95;;;;;;;;;;5109072;28;20031;-67
2021/08/07 06:59:25;;;;;;;12.52;5.00;;;;;;;;;;5119652;28;20413;-66
2021/08/07 07:01:51;;;;;;;14.27;5.38;;;;;;;;;;5112939;27;20043;-67
2021/08/07 07:04:17;;;;;;;12.82;5.15;;;;;;;;;;5111634;28;20397;-66
2021/08/07 07:06:43;;;;;;;13.95;5.00;;;;;;;;;;5108629;28;20127;-66
2021/08/07 07:09:09;;;;;;;12.07;4.50;;;;;;;;;;5110080;28;20023;-67
2021/08/07 07:11:37;;;;;;;10.80;4.57;;;;;;;;;;5109875;28;20028;-66
2021/08/07 07:14:03;;;;;;;12.60;4.97;;;;;;;;;;5115543;27;20030;-66
2021/08/07 07:16:30;;;;;;;13.07;4.20;;;;;;;;;;5108201;28;20563;-67
2021/08/07 07:18:56;;;;;;;13.77;4.32;;;;;;;;;;5117278;28;20027;-65
2021/08/07 07:21:22;;;;;;;14.32;4.30;;;;;;;;;;5111949;27;20096;-65
2021/08/07 07:23:48;;;;;;;12.13;4.68;;;;;;;;;;5108498;28;20034;-67
2021/08/07 07:26:14;;;;;;;12.88;3.90;;;;;;;;;;5103899;28;20023;-66
2021/08/07 07:28:40;;;;;;;13.02;3.53;;;;;;;;;;5108115;28;20027;-66
2021/08/07 07:31:06;;;;;;;14.93;3.88;;;;;;;;;;5108265;28;20028;-66
2021/08/07 07:33:32;;;;;;;15.25;3.63;;;;;;;;;;5112827;28;20032;-67
2021/08/07 07:35:59;;;;;;;12.07;3.25;;;;;;;;;;5102451;28;20020;-67
2021/08/07 07:38:25;;;;;;;10.75;3.30;;;;;;;;;;5109117;28;20032;-67
2021/08/07 07:40:52;;;;;;;10.77;2.92;;;;;;;;;;5110819;28;20028;-65
2021/08/07 07:43:21;;;;;;;8.50;3.00;;;;;;;;;;5100137;27;20024;-67
2021/08/07 07:45:47;;;;;;;9.23;3.35;;;;;;;;;;5111945;27;20085;-67
2021/08/07 07:48:13;;;;;;;8.27;3.33;;;;;;;;;;5109277;27;20591;-66
2021/08/07 07:50:39;;;;;;;9.75;2.78;;;;;;;;;;5116963;27;20402;-66
2021/08/07 07:53:05;;;;;;;11.93;3.55;;;;;;;;;;5112047;27;20018;-66
2021/08/07 07:55:31;;;;;;;11.18;2.88;;;;;;;;;;5105993;28;20522;-67
2021/08/07 07:57:59;;;;;;;11.32;2.58;;;;;;;;;;5111049;28;20619;-67
2021/08/07 08:00:25;;;;;;;12.50;2.53;;;;;;;;;;5104451;28;20477;-66
2021/08/07 08:02:51;;;;;;;7.85;2.58;;;;;;;;;;5110653;27;20096;-67
2021/08/07 08:05:17;;;;;;;12.82;2.90;;;;;;;;;;5103181;28;20576;-67
2021/08/07 08:07:44;;;;;;;10.18;2.67;;;;;;;;;;5104377;27;20035;-67
2021/08/07 08:10:11;;;;;;;11.43;2.95;;;;;;;;;;5107488;28;20035;-66
2021/08/07 08:12:38;;;;;;;9.38;2.90;;;;;;;;;;5105860;28;20040;-66
2021/08/07 08:15:05;;;;;;;13.25;3.45;;;;;;;;;;5100986;27;20440;-67
2021/08/07 08:17:31;;;;;;;8.95;2.47;;;;;;;;;;5096801;28;20043;-66
2021/08/07 08:19:58;;;;;;;13.43;2.92;;;;;;;;;;5114439;27;20024;-66
2021/08/07 08:22:24;;;;;;;11.45;3.42;;;;;;;;;;5112862;28;20035;-65
2021/08/07 08:24:50;;;;;;;8.98;2.70;;;;;;;;;;5104219;27;20039;-66
2021/08/07 08:27:19;;;;;;;8.75;4.07;;;;;;;;;;5107926;27;20035;-67
2021/08/07 08:29:48;;;;;;;8.35;3.40;;;;;;;;;;5109094;27;20027;-68
2021/08/07 08:32:15;;;;;;;9.18;2.67;;;;;;;;;;5105404;27;20025;-66
2021/08/07 08:34:41;;;;;;;10.80;3.50;;;;;;;;;;5109587;27;20020;-66
2021/08/07 08:37:07;;;;;;;9.82;3.13;;;;;;;;;;5094875;27;20028;-67
2021/08/07 08:39:34;;;;;;;7.40;2.70;;;;;;;;;;5104601;28;20391;-67
2021/08/07 08:42:00;;;;;;;13.02;3.33;;;;;;;;;;5112196;28;20046;-66
2021/08/07 08:44:26;;;;;;;11.57;3.42;;;;;;;;;;5110759;28;20452;-67
2021/08/07 08:46:53;;;;;;;8.88;3.10;;;;;;;;;;5109178;28;20026;-67
2021/08/07 08:49:20;;;;;;;10.40;3.33;;;;;;;;;;5111532;28;20044;-67
2021/08/07 08:51:46;;;;;;;11.05;3.25;;;;;;;;;;5110474;28;20038;-66
2021/08/07 08:54:13;;;;;;;6.72;2.65;;;;;;;;;;5111943;28;20024;-66
2021/08/07 08:56:39;;;;;;;8.63;3.03;;;;;;;;;;5109778;28;20276;-67
2021/08/07 08:59:07;;;;;;;11.75;4.03;;;;;;;;;;5112020;28;20027;-67
2021/08/07 09:01:33;;;;;;;10.45;2.85;;;;;;;;;;5111878;28;20103;-66
2021/08/07 09:04:01;;;;;;;9.23;3.28;;;;;;;;;;5107276;28;20047;-67
2021/08/07 09:06:27;;;;;;;8.80;3.33;;;;;;;;;;5108367;28;20040;-67
2021/08/07 09:08:59;;;;;;;7.15;2.97;;;;;;;;;;5111395;28;20022;-66
2021/08/07 09:11:25;;;;;;;9.38;3.40;;;;;;;;;;5112502;28;20023;-67
2021/08/07 09:13:55;;;;;;;11.75;3.08;;;;;;;;;;5100730;28;20038;-67
2021/08/07 09:16:21;;;;;;;8.45;3.38;;;;;;;;;;5108582;28;20027;-67
2021/08/07 09:18:55;;;;;;;8.48;3.35;;;;;;;;;;5107297;28;20398;-67
2021/08/07 09:21:21;;;;;;;10.55;2.88;;;;;;;;;;5100735;28;20043;-68
2021/08/07 09:23:47;;;;;;;8.75;3.10;;;;;;;;;;5106825;28;20027;-67
2021/08/07 09:26:20;;;;;;;9.15;3.38;;;;;;;;;;5106811;28;20027;-67
2021/08/07 09:28:46;;;;;;;8.55;3.10;;;;;;;;;;5111262;28;20027;-67
2021/08/07 09:31:13;;;;;;;10.40;3.45;;;;;;;;;;5111924;28;20018;-68
2021/08/07 09:33:39;;;;;;;10.90;3.53;;;;;;;;;;5108714;28;20106;-67
2021/08/07 09:36:06;;;;;;;6.88;3.30;;;;;;;;;;5103133;28;20110;-67
2021/08/07 09:38:32;;;;;;;6.85;2.90;;;;;;;;;;5111448;28;20034;-67
2021/08/07 09:41:07;;;;;;;7.93;3.35;;;;;;;;;;5111088;28;20067;-68
2021/08/07 09:43:47;;;;;;;8.23;3.00;;;;;;;;;;5111612;28;20031;-68
2021/08/07 09:46:13;;;;;;;14.10;2.72;;;;;;;;;;5107942;28;20234;-67
2021/08/07 09:48:45;;;;;;;9.00;2.97;;;;;;;;;;5111429;28;20024;-67
2021/08/07 09:51:28;;;;;;;10.43;2.85;;;;;;;;;;5111051;28;20026;-67
2021/08/07 09:54:02;;;;;;;9.65;2.70;;;;;;;;;;5101579;28;20023;-68
2021/08/07 09:56:40;;;;;;;9.27;2.45;;;;;;;;;;5106916;28;20036;-70
2021/08/07 09:59:09;;;;;;;12.27;2.95;;;;;;;;;;5110642;28;20032;-67
2021/08/07 10:01:36;;;;;;;8.15;2.28;;;;;;;;;;5110258;28;20092;-67
2021/08/07 10:04:11;;;;;;;7.45;1.85;;;;;;;;;;5109438;28;20023;-67
2021/08/07 10:06:37;;;;;;;5.78;1.65;;;;;;;;;;5108078;28;20044;-67
2021/08/07 10:09:04;;;;;;;8.00;1.80;;;;;;;;;;5110462;28;20027;-68
2021/08/07 10:11:30;;;;;;;8.13;2.88;;;;;;;;;;5108232;28;20554;-68
2021/08/07 10:13:56;;;;;;;6.63;1.90;;;;;;;;;;5103484;28;20162;-69
2021/08/07 10:16:23;;;;;;;7.38;2.83;;;;;;;;;;5105548;28;20494;-67
2021/08/07 10:18:49;;;;;;;10.05;2.10;;;;;;;;;;5109152;28;20027;-67
2021/08/07 10:21:16;;;;;;;12.35;1.67;;;;;;;;;;5110749;28;20039;-68
2021/08/07 10:23:42;;;;;;;7.93;2.08;;;;;;;;;;5109468;28;20039;-67
2021/08/07 10:26:11;;;;;;;7.68;1.83;;;;;;;;;;5104901;28;20028;-67
2021/08/07 10:28:42;;;;;;;8.30;1.52;;;;;;;;;;5110864;28;20020;-67
2021/08/07 10:31:11;;;;;;;10.63;2.55;;;;;;;;;;5110231;28;20036;-67
2021/08/07 10:33:41;;;;;;;5.97;1.23;;;;;;;;;;5107454;28;20022;-67
2021/08/07 10:36:07;;;;;;;5.15;1.20;;;;;;;;;;5107296;28;20027;-67
2021/08/07 10:38:35;;;;;;;4.32;1.10;;;;;;;;;;5110285;28;20023;-68
2021/08/07 10:41:02;;;;;;;5.35;1.45;;;;;;;;;;5109890;28;20051;-67
2021/08/07 10:43:28;;;;;;;8.85;1.60;;;;;;;;;;5109716;28;20077;-67
2021/08/07 10:45:54;;;;;;;4.88;1.42;;;;;;;;;;5107197;28;20255;-67
2021/08/07 10:48:39;;;;;;;6.07;1.60;;;;;;;;;;5109863;28;20460;-67
2021/08/07 10:51:20;;;;;;;6.07;2.35;;;;;;;;;;5100889;28;20049;-68
2021/08/07 10:53:47;;;;;;;4.22;1.30;;;;;;;;;;5109344;28;20077;-67
2021/08/07 10:56:25;;;;;;;11.55;1.92;;;;;;;;;;5104243;28;20031;-68
2021/08/07 10:58:52;;;;;;;7.50;1.38;;;;;;;;;;5107001;28;20081;-67
2021/08/07 11:01:27;;;;;;;8.20;1.55;;;;;;;;;;5105148;28;20040;-67
2021/08/07 11:03:52;;;;;;;6.43;1.42;;;;;;;;;;5096083;28;20043;-67
2021/08/07 11:06:19;;;;;;;6.22;1.55;;;;;;;;;;5110013;28;20407;-67
2021/08/07 11:08:45;;;;;;;5.60;1.65;;;;;;;;;;5114394;28;20461;-67
2021/08/07 11:11:30;;;;;;;11.65;1.45;;;;;;;;;;5113803;28;20020;-67
2021/08/07 11:14:15;;;;;;;6.45;1.65;;;;;;;;;;5109365;28;20020;-67
2021/08/07 11:16:41;;;;;;;6.75;1.80;;;;;;;;;;5111274;28;20110;-68
2021/08/07 11:19:26;;;;;;;6.32;1.70;;;;;;;;;;5113263;28;20059;-68
2021/08/07 11:21:52;;;;;;;12.65;1.42;;;;;;;;;;5113741;28;20491;-67
2021/08/07 11:24:37;;;;;;;11.05;2.85;;;;;;;;;;5109422;28;20020;-67
2021/08/07 11:27:03;;;;;;;5.82;1.85;;;;;;;;;;5108760;28;20077;-67
2021/08/07 11:29:29;;;;;;;5.28;1.30;;;;;;;;;;5102219;28;20024;-67
2021/08/07 11:32:14;;;;;;;11.52;1.67;;;;;;;;;;5098885;28;20020;-67
2021/08/07 11:34:47;;;;;;;6.28;1.77;;;;;;;;;;5110792;28;20065;-67
2021/08/07 11:37:17;;;;;;;7.32;1.60;;;;;;;;;;5109683;28;20047;-69
2021/08/07 11:40:02;;;;;;;6.32;1.48;;;;;;;;;;5113580;28;20123;-67
2021/08/07 11:42:38;;;;;;;7.35;1.35;;;;;;;;;;5112398;28;20178;-67
2021/08/07 11:45:05;;;;;;;7.68;1.80;;;;;;;;;;5111635;28;20054;-67
2021/08/07 11:47:32;;;;;;;7.57;1.42;;;;;;;;;;5109874;28;20426;-67
2021/08/07 11:49:58;;;;;;;3.20;1.17;;;;;;;;;;5112815;28;20533;-67
2021/08/07 11:52:29;;;;;;;7.00;2.00;;;;;;;;;;5111218;28;20062;-66
2021/08/07 11:54:56;;;;;;;9.25;1.58;;;;;;;;;;5105585;28;20063;-67
2021/08/07 11:57:26;;;;;;;9.18;2.20;;;;;;;;;;5110444;27;20027;-67
2021/08/07 11:59:52;;;;;;;8.52;1.52;;;;;;;;;;5110637;28;20297;-67
2021/08/07 12:02:18;;;;;;;6.53;1.80;;;;;;;;;;5109819;28;20038;-67
2021/08/07 12:04:45;;;;;;;10.05;1.80;;;;;;;;;;5110197;28;20032;-67
2021/08/07 12:07:12;;;;;;;6.85;1.40;;;;;;;;;;5107786;28;20069;-67
2021/08/07 12:09:38;;;;;;;6.00;1.70;;;;;;;;;;5109095;28;20011;-67
2021/08/07 12:12:04;;;;;;;6.88;1.73;;;;;;;;;;5110320;28;20501;-67
2021/08/07 12:14:30;;;;;;;5.35;1.27;;;;;;;;;;5107318;28;20106;-67
2021/08/07 12:17:05;;;;;;;10.73;1.52;;;;;;;;;;5103634;28;20047;-67
2021/08/07 12:19:31;;;;;;;4.97;1.50;;;;;;;;;;5110350;28;20026;-68
2021/08/07 12:22:04;;;;;;;6.38;1.35;;;;;;;;;;5111245;28;20045;-66
2021/08/07 12:24:30;;;;;;;6.75;2.10;;;;;;;;;;5110304;27;20028;-66
2021/08/07 12:26:57;;;;;;;7.07;2.10;;;;;;;;;;5106373;28;20115;-67
2021/08/07 12:29:25;;;;;;;4.70;1.50;;;;;;;;;;5111357;28;20031;-66
2021/08/07 12:31:54;;;;;;;9.35;1.80;;;;;;;;;;5110355;28;20019;-66
2021/08/07 12:34:21;;;;;;;7.95;1.30;;;;;;;;;;5108933;28;20023;-67
2021/08/07 12:36:56;;;;;;;9.75;2.47;;;;;;;;;;5107465;27;20020;-67
2021/08/07 12:39:23;;;;;;;5.35;1.70;;;;;;;;;;5108201;28;20054;-67
2021/08/07 12:41:49;;;;;;;8.50;1.75;;;;;;;;;;5109793;28;20514;-67
2021/08/07 12:44:22;;;;;;;6.32;1.60;;;;;;;;;;5109717;28;20024;-67
2021/08/07 12:46:49;;;;;;;8.10;1.70;;;;;;;;;;5105377;28;20024;-67
2021/08/07 12:49:15;;;;;;;7.10;1.70;;;;;;;;;;5108433;28;20030;-67
2021/08/07 12:51:41;;;;;;;7.65;1.45;;;;;;;;;;5110066;28;20107;-67
2021/08/07 12:54:18;;;;;;;5.40;1.35;;;;;;;;;;5109796;28;20023;-67
2021/08/07 12:56:48;;;;;;;5.60;1.38;;;;;;;;;;5106713;28;20027;-69
2021/08/07 12:59:18;;;;;;;8.18;1.70;;;;;;;;;;5108908;28;20023;-68
2021/08/07 13:01:59;;;;;;;5.65;1.80;;;;;;;;;;5107132;28;20084;-69
2021/08/07 13:04:39;;;;;;;5.57;2.08;;;;;;;;;;5109932;28;20521;-68
2021/08/07 13:07:05;;;;;;;5.15;1.08;;;;;;;;;;5106223;28;20061;-68
2021/08/07 13:09:32;;;;;;;6.28;1.38;;;;;;;;;;5110309;28;20019;-67
2021/08/07 13:12:20;;;;;;;5.82;1.42;;;;;;;;;;5107339;28;20043;-67
2021/08/07 13:15:05;;;;;;;4.05;1.33;;;;;;;;;;5108093;28;20035;-68
2021/08/07 13:17:41;;;;;;;5.80;1.30;;;;;;;;;;5106243;28;20036;-68
2021/08/07 13:20:09;;;;;;;9.45;2.03;;;;;;;;;;5108292;28;20453;-67
2021/08/07 13:22:35;;;;;;;6.43;1.33;;;;;;;;;;5108154;28;20027;-68
2021/08/07 13:25:03;;;;;;;7.38;1.30;;;;;;;;;;5108122;28;20030;-68
2021/08/07 13:27:33;;;;;;;5.20;1.77;;;;;;;;;;5107858;28;20028;-66
2021/08/07 13:30:00;;;;;;;6.78;1.33;;;;;;;;;;5107721;28;20568;-67
2021/08/07 13:32:29;;;;;;;6.57;1.95;;;;;;;;;;5109089;27;20099;-66
2021/08/07 13:34:55;;;;;;;6.20;2.03;;;;;;;;;;5109481;28;20035;-66
2021/08/07 13:37:22;;;;;;;6.20;1.73;;;;;;;;;;5107596;28;20020;-66
2021/08/07 13:39:48;;;;;;;7.18;1.75;;;;;;;;;;5110173;28;20071;-66
2021/08/07 13:42:18;;;;;;;8.20;1.80;;;;;;;;;;5107801;27;20063;-67
2021/08/07 13:44:44;;;;;;;7.15;1.52;;;;;;;;;;5110608;28;20047;-67
2021/08/07 13:47:10;;;;;;;6.97;1.65;;;;;;;;;;5105061;28;20024;-67
2021/08/07 13:49:36;;;;;;;11.68;2.08;;;;;;;;;;5108673;28;20035;-67
2021/08/07 13:52:02;;;;;;;8.38;2.83;;;;;;;;;;5109258;28;20043;-67
2021/08/07 13:54:29;;;;;;;9.40;2.33;;;;;;;;;;5107538;28;20024;-67
2021/08/07 13:56:55;;;;;;;5.68;1.65;;;;;;;;;;5104419;28;20028;-67
2021/08/07 13:59:21;;;;;;;9.27;2.30;;;;;;;;;;5108826;28;20026;-67
2021/08/07 14:01:47;;;;;;;20.08;3.72;;;;;;;;;;5110152;28;20102;-74
2021/08/07 14:04:13;;;;;;;11.73;2.83;;;;;;;;;;5109779;28;20081;-75
2021/08/07 14:06:39;;;;;;;11.10;3.10;;;;;;;;;;5104553;28;20160;-74
2021/08/07 14:09:06;;;;;;;8.90;2.80;;;;;;;;;;5109702;28;20043;-76
2021/08/07 14:11:32;;;;;;;14.85;3.40;;;;;;;;;;5108959;28;20030;-77
2021/08/07 14:13:59;;;;;;;12.45;2.97;;;;;;;;;;5108870;28;20406;-76
2021/08/07 14:16:25;;;;;;;12.65;2.67;;;;;;;;;;5106746;28;20028;-75
2021/08/07 14:18:51;;;;;;;8.82;2.58;;;;;;;;;;5108687;28;20058;-76
2021/08/07 14:21:17;;;;;;;6.00;2.13;;;;;;;;;;5109512;28;20053;-76
2021/08/07 14:23:43;;;;;;;9.40;2.95;;;;;;;;;;5109269;28;20521;-75
2021/08/07 14:26:09;;;;;;;7.50;3.47;;;;;;;;;;5106952;28;20020;-76
2021/08/07 14:28:35;;;;;;;9.00;2.60;;;;;;;;;;5109192;28;20023;-75
2021/08/07 14:31:01;;;;;;;8.60;2.50;;;;;;;;;;5103881;28;20042;-81
2021/08/07 14:33:27;;;;;;;10.18;3.15;;;;;;;;;;5108049;28;20019;-77
2021/08/07 14:35:53;;;;;;;14.77;2.75;;;;;;;;;;5105004;28;20034;-78
2021/08/07 14:38:19;;;;;;;14.63;2.67;;;;;;;;;;5107036;28;20478;-77